createdAt,value
2022-10-19T00:01:24.022Z,8.10
2022-10-19T00:03:54.753Z,8.10
2022-10-19T00:06:27.289Z,8.09
2022-10-19T00:09:01.144Z,8.07
2022-10-19T00:11:31.114Z,8.07
2022-10-19T00:14:00.391Z,8.06
2022-10-19T00:16:31.058Z,8.06
2022-10-19T00:19:01.406Z,8.05
2022-10-19T00:21:29.846Z,8.03
2022-10-19T00:23:57.833Z,8.01
2022-10-19T00:26:25.873Z,7.98
2022-10-19T00:28:55.958Z,7.94
2022-10-19T00:31:25.103Z,7.90
2022-10-19T00:33:55.876Z,7.84
2022-10-19T00:36:28.165Z,7.81
2022-10-19T00:38:58.417Z,7.79
2022-10-19T00:41:29.782Z,7.77
2022-10-19T00:44:28.526Z,7.75
2022-10-19T00:47:05.035Z,7.73
2022-10-19T00:49:41.738Z,7.73
2022-10-19T00:52:16.543Z,7.74
2022-10-19T00:54:47.719Z,7.74
2022-10-19T00:57:16.530Z,7.75
2022-10-19T00:59:46.732Z,7.75
2022-10-19T01:02:15.076Z,7.76
2022-10-19T01:04:48.001Z,7.76
2022-10-19T01:07:17.042Z,7.75
2022-10-19T01:09:45.740Z,7.74
2022-10-19T01:12:35.364Z,7.71
2022-10-19T01:15:15.210Z,7.66
2022-10-19T01:18:02.381Z,7.61
2022-10-19T01:21:10.976Z,7.55
2022-10-19T01:24:00.878Z,7.50
2022-10-19T01:26:50.859Z,7.46
2022-10-19T01:29:49.575Z,7.42
2022-10-19T01:32:40.921Z,7.41
2022-10-19T01:35:17.061Z,7.39
2022-10-19T01:37:50.409Z,7.38
2022-10-19T01:40:28.797Z,7.38
2022-10-19T01:43:07.592Z,7.38
2022-10-19T01:45:50.443Z,7.38
2022-10-19T01:48:27.152Z,7.38
2022-10-19T01:51:19.302Z,7.39
2022-10-19T01:53:53.712Z,7.38
2022-10-19T01:56:25.463Z,7.37
2022-10-19T01:58:57.008Z,7.35
2022-10-19T02:01:29.017Z,7.33
2022-10-19T02:03:58.455Z,7.30
2022-10-19T02:06:27.789Z,7.25
2022-10-19T02:08:56.567Z,7.21
2022-10-19T02:11:25.339Z,7.17
2022-10-19T02:14:00.216Z,7.14
2022-10-19T02:16:37.268Z,7.12
2022-10-19T02:19:08.856Z,7.10
2022-10-19T02:21:36.926Z,7.09
2022-10-19T02:24:05.178Z,7.08
2022-10-19T02:26:33.523Z,7.07
2022-10-19T02:29:01.860Z,7.08
2022-10-19T02:31:30.044Z,7.07
2022-10-19T02:33:58.323Z,7.07
2022-10-19T02:36:26.675Z,7.06
2022-10-19T02:38:54.886Z,7.05
2022-10-19T02:41:42.090Z,7.03
2022-10-19T02:44:30.922Z,7.00
2022-10-19T02:47:07.129Z,6.96
2022-10-19T02:49:37.995Z,6.92
2022-10-19T02:52:11.484Z,6.87
2022-10-19T02:54:42.529Z,6.85
2022-10-19T02:57:23.106Z,6.84
2022-10-19T02:59:52.632Z,6.83
2022-10-19T03:02:21.236Z,6.81
2022-10-19T03:04:49.538Z,6.81
2022-10-19T03:07:20.567Z,6.81
2022-10-19T03:09:49.805Z,6.81
2022-10-19T03:12:18.968Z,6.81
2022-10-19T03:14:47.631Z,6.82
2022-10-19T03:17:15.933Z,6.83
2022-10-19T03:19:44.959Z,6.82
2022-10-19T03:22:15.088Z,6.80
2022-10-19T03:24:44.451Z,6.78
2022-10-19T03:27:12.490Z,6.74
2022-10-19T03:29:40.626Z,6.72
2022-10-19T03:32:08.526Z,6.68
2022-10-19T03:34:36.392Z,6.66
2022-10-19T03:37:04.586Z,6.58
2022-10-19T03:39:32.725Z,6.62
2022-10-19T03:42:00.782Z,6.61
2022-10-19T03:44:28.787Z,6.60
2022-10-19T03:46:56.857Z,6.59
2022-10-19T03:49:24.906Z,6.59
2022-10-19T03:51:53.019Z,6.59
2022-10-19T03:54:23.669Z,6.58
2022-10-19T03:56:55.425Z,6.57
2022-10-19T03:59:24.651Z,6.57
2022-10-19T04:01:52.843Z,6.57
2022-10-19T04:04:20.999Z,6.58
2022-10-19T04:06:51.231Z,6.57
2022-10-19T04:09:21.686Z,6.55
2022-10-19T04:11:50.413Z,6.53
2022-10-19T04:14:31.687Z,6.50
2022-10-19T04:17:02.566Z,6.48
2022-10-19T04:19:31.687Z,6.48
2022-10-19T04:21:59.970Z,6.48
2022-10-19T04:24:28.385Z,6.50
2022-10-19T04:26:57.307Z,6.51
2022-10-19T04:29:29.671Z,6.53
2022-10-19T04:31:58.599Z,6.55
2022-10-19T04:34:26.960Z,6.57
2022-10-19T04:36:55.080Z,6.58
2022-10-19T04:39:25.058Z,6.57
2022-10-19T04:41:53.423Z,6.57
2022-10-19T04:44:21.581Z,6.54
2022-10-19T04:46:49.923Z,6.51
2022-10-19T04:49:20.241Z,6.48
2022-10-19T04:51:48.765Z,6.45
2022-10-19T04:54:16.827Z,6.42
2022-10-19T04:56:45.203Z,6.39
2022-10-19T04:59:13.679Z,6.40
2022-10-19T05:01:46.465Z,6.43
2022-10-19T05:04:15.529Z,6.48
2022-10-19T05:06:44.425Z,6.55
2022-10-19T05:09:13.254Z,6.63
2022-10-19T05:11:41.619Z,6.72
2022-10-19T05:14:09.874Z,6.84
2022-10-19T05:16:38.644Z,6.95
2022-10-19T05:19:07.499Z,7.07
2022-10-19T05:21:36.200Z,7.20
2022-10-19T05:24:04.644Z,7.42
2022-10-19T05:26:33.539Z,7.76
2022-10-19T05:29:03.146Z,8.11
2022-10-19T05:31:33.607Z,8.43
2022-10-19T05:34:04.345Z,8.70
2022-10-19T05:36:37.344Z,8.87
2022-10-19T05:39:12.050Z,9.07
2022-10-19T05:41:42.897Z,9.30
2022-10-19T05:44:17.612Z,9.53
2022-10-19T05:46:47.310Z,9.72
2022-10-19T05:49:17.643Z,9.79
2022-10-19T05:51:46.068Z,9.77
2022-10-19T05:54:15.453Z,9.81
2022-10-19T05:56:45.233Z,9.94
2022-10-19T05:59:19.262Z,10.23
2022-10-19T06:01:48.627Z,10.59
2022-10-19T06:06:46.512Z,11.19
2022-10-19T06:09:15.418Z,11.49
2022-10-19T06:11:44.625Z,11.79
2022-10-19T06:14:15.881Z,12.04
2022-10-19T06:16:46.238Z,12.18
2022-10-19T06:19:14.900Z,12.42
2022-10-19T06:21:45.873Z,12.66
2022-10-19T06:24:14.659Z,12.82
2022-10-19T06:26:43.362Z,12.97
2022-10-19T06:29:12.192Z,13.13
2022-10-19T06:31:40.822Z,13.31
2022-10-19T06:34:09.223Z,13.40
2022-10-19T06:36:37.508Z,13.48
2022-10-19T06:39:06.293Z,13.73
2022-10-19T06:41:35.518Z,13.95
2022-10-19T06:44:19.540Z,14.03
2022-10-19T06:46:47.905Z,13.98
2022-10-19T06:49:16.642Z,14.13
2022-10-19T06:51:45.699Z,14.30
2022-10-19T06:54:14.059Z,14.51
2022-10-19T06:56:42.707Z,14.70
2022-10-19T06:59:14.840Z,14.70
2022-10-19T07:01:43.846Z,14.81
2022-10-19T07:04:12.408Z,14.68
2022-10-19T07:06:40.706Z,14.76
2022-10-19T07:09:09.323Z,14.85
2022-10-19T07:11:42.418Z,14.90
2022-10-19T07:14:14.856Z,14.88
2022-10-19T07:16:43.867Z,14.83
2022-10-19T07:19:13.763Z,14.85
2022-10-19T07:21:43.989Z,14.97
2022-10-19T07:24:12.904Z,14.87
2022-10-19T07:26:41.565Z,14.80
2022-10-19T07:29:10.803Z,14.75
2022-10-19T07:31:40.229Z,14.78
2022-10-19T07:34:14.017Z,14.75
2022-10-19T07:36:46.511Z,14.72
2022-10-19T07:39:19.279Z,14.73
2022-10-19T07:41:47.970Z,14.70
2022-10-19T07:44:17.250Z,14.62
2022-10-19T07:46:46.460Z,14.60
2022-10-19T07:49:16.770Z,14.61
2022-10-19T07:51:46.126Z,14.66
2022-10-19T07:54:14.854Z,14.64
2022-10-19T07:56:43.122Z,14.68
2022-10-19T07:59:11.760Z,14.72
2022-10-19T08:01:41.853Z,14.71
2022-10-19T08:06:59.345Z,14.92
2022-10-19T08:12:16.440Z,14.93
2022-10-19T08:14:45.119Z,14.85
2022-10-19T08:17:17.014Z,14.98
2022-10-19T08:19:47.182Z,15.19
2022-10-19T08:22:16.071Z,15.38
2022-10-19T08:24:45.874Z,15.39
2022-10-19T08:27:15.391Z,15.27
2022-10-19T08:29:44.105Z,15.18
2022-10-19T08:32:12.828Z,15.23
2022-10-19T08:34:41.751Z,15.39
2022-10-19T08:37:20.165Z,15.41
2022-10-19T08:39:59.570Z,15.53
2022-10-19T08:42:41.749Z,15.66
2022-10-19T08:45:27.118Z,15.67
2022-10-19T08:48:02.859Z,15.71
2022-10-19T08:50:50.974Z,15.85
2022-10-19T08:54:00.348Z,15.87
2022-10-19T08:56:51.528Z,15.87
2022-10-19T08:59:33.476Z,15.85
2022-10-19T09:02:45.365Z,15.86
2022-10-19T09:05:41.194Z,15.95
2022-10-19T09:08:18.358Z,16.06
2022-10-19T09:10:55.215Z,16.22
2022-10-19T09:13:41.584Z,16.39
2022-10-19T09:16:20.007Z,16.48
2022-10-19T09:21:40.842Z,16.74
2022-10-19T09:24:24.575Z,16.84
2022-10-19T09:26:56.166Z,16.81
2022-10-19T09:30:02.865Z,16.69
2022-10-19T09:32:37.625Z,16.44
2022-10-19T09:35:25.681Z,16.20
2022-10-19T09:37:56.256Z,15.98
2022-10-19T09:40:29.383Z,15.87
2022-10-19T09:42:59.567Z,15.69
2022-10-19T09:45:48.711Z,15.64
2022-10-19T09:48:28.412Z,15.72
2022-10-19T09:51:01.034Z,15.83
2022-10-19T09:53:30.824Z,15.90
2022-10-19T09:56:05.039Z,16.08
2022-10-19T09:58:35.151Z,16.22
2022-10-19T10:01:04.344Z,16.29
2022-10-19T10:03:40.585Z,16.43
2022-10-19T10:06:17.824Z,16.50
2022-10-19T10:08:58.373Z,16.55
2022-10-19T10:11:37.288Z,16.62
2022-10-19T10:14:29.239Z,16.71
2022-10-19T10:17:04.282Z,16.76
2022-10-19T10:19:33.426Z,16.82
2022-10-19T10:22:04.496Z,16.79
2022-10-19T10:24:35.100Z,16.61
2022-10-19T10:27:07.000Z,16.48
2022-10-19T10:29:37.830Z,16.51
2022-10-19T10:32:12.814Z,16.56
2022-10-19T10:34:54.898Z,16.39
2022-10-19T10:37:36.594Z,16.34
2022-10-19T10:40:07.507Z,16.44
2022-10-19T10:42:46.295Z,16.49
2022-10-19T10:45:27.069Z,16.62
2022-10-19T10:47:58.865Z,16.77
2022-10-19T10:50:34.784Z,16.77
2022-10-19T10:53:08.233Z,16.85
2022-10-19T10:55:36.664Z,16.80
2022-10-19T10:58:25.452Z,16.84
2022-10-19T11:01:02.833Z,16.84
2022-10-19T11:03:38.179Z,16.82
2022-10-19T11:06:09.354Z,16.97
2022-10-19T11:08:57.142Z,17.11
2022-10-19T11:11:35.684Z,17.18
2022-10-19T11:14:29.559Z,17.26
2022-10-19T11:17:30.100Z,17.03
2022-10-19T11:19:59.717Z,16.75
2022-10-19T11:22:58.359Z,16.58
2022-10-19T11:25:45.298Z,16.42
2022-10-19T11:28:16.636Z,16.23
2022-10-19T11:31:07.523Z,16.05
2022-10-19T11:33:45.308Z,15.97
2022-10-19T11:36:43.013Z,15.99
2022-10-19T11:39:26.815Z,15.85
2022-10-19T11:41:58.376Z,15.68
2022-10-19T11:44:38.245Z,15.61
2022-10-19T11:47:33.538Z,15.66
2022-10-19T11:50:34.736Z,15.71
2022-10-19T11:53:13.151Z,15.72
2022-10-19T11:55:57.066Z,15.77
2022-10-19T11:58:47.317Z,15.76
2022-10-19T12:01:27.678Z,15.74
2022-10-19T12:04:14.659Z,15.65
2022-10-19T12:06:57.429Z,15.58
2022-10-19T12:09:57.684Z,15.58
2022-10-19T12:12:32.430Z,15.61
2022-10-19T12:15:06.087Z,15.60
2022-10-19T12:17:38.330Z,15.69
2022-10-19T12:20:20.499Z,15.82
2022-10-19T12:22:50.531Z,15.96
2022-10-19T12:25:21.294Z,16.02
2022-10-19T12:27:52.108Z,16.03
2022-10-19T12:30:23.407Z,15.98
2022-10-19T12:33:14.768Z,15.98
2022-10-19T12:35:54.023Z,15.93
2022-10-19T12:39:06.541Z,15.86
2022-10-19T12:42:02.289Z,15.96
2022-10-19T12:45:08.457Z,16.01
2022-10-19T12:47:37.198Z,16.03
2022-10-19T12:50:06.791Z,16.10
2022-10-19T12:52:42.650Z,16.19
2022-10-19T12:55:13.542Z,16.26
2022-10-19T12:58:06.512Z,16.37
2022-10-19T13:00:39.988Z,16.44
2022-10-19T13:03:13.774Z,16.41
2022-10-19T13:05:43.228Z,16.46
2022-10-19T13:08:27.629Z,16.51
2022-10-19T13:11:15.434Z,16.56
2022-10-19T13:13:58.765Z,16.53
2022-10-19T13:16:30.718Z,16.44
2022-10-19T13:19:09.869Z,16.41
2022-10-19T13:21:45.346Z,16.37
2022-10-19T13:24:26.016Z,16.25
2022-10-19T13:27:03.490Z,16.23
2022-10-19T13:29:41.327Z,16.21
2022-10-19T13:32:29.781Z,16.07
2022-10-19T13:35:37.754Z,15.92
2022-10-19T13:38:09.469Z,15.84
2022-10-19T13:40:55.604Z,15.80
2022-10-19T13:43:26.986Z,15.72
2022-10-19T13:46:07.017Z,15.69
2022-10-19T13:48:48.859Z,15.59
2022-10-19T13:51:55.642Z,15.47
2022-10-19T13:55:01.877Z,15.46
2022-10-19T13:57:34.271Z,15.42
2022-10-19T14:00:25.162Z,15.35
2022-10-19T14:03:23.820Z,15.26
2022-10-19T14:05:57.636Z,15.14
2022-10-19T14:08:41.393Z,15.08
2022-10-19T14:11:20.725Z,14.95
2022-10-19T14:14:07.253Z,14.86
2022-10-19T14:16:45.035Z,14.81
2022-10-19T14:19:20.770Z,14.76
2022-10-19T14:21:48.898Z,14.69
2022-10-19T14:24:27.274Z,14.64
2022-10-19T14:26:56.255Z,14.54
2022-10-19T14:29:24.991Z,14.50
2022-10-19T14:31:54.094Z,14.42
2022-10-19T14:34:22.964Z,14.41
2022-10-19T14:36:51.905Z,14.39
2022-10-19T14:39:34.366Z,14.33
2022-10-19T14:42:10.770Z,14.28
2022-10-19T14:44:40.661Z,14.28
2022-10-19T14:47:17.980Z,14.26
2022-10-19T14:49:49.045Z,14.28
2022-10-19T14:52:24.153Z,14.30
2022-10-19T14:54:54.418Z,14.32
2022-10-19T14:57:33.343Z,14.32
2022-10-19T15:00:05.944Z,14.33
2022-10-19T15:02:40.437Z,14.36
2022-10-19T15:05:20.426Z,14.36
2022-10-19T15:07:49.709Z,14.32
2022-10-19T15:10:26.583Z,14.29
2022-10-19T15:13:04.440Z,14.20
2022-10-19T15:15:36.962Z,14.10
2022-10-19T15:18:07.021Z,14.08
2022-10-19T15:20:49.592Z,14.01
2022-10-19T15:23:40.152Z,13.98
2022-10-19T15:26:26.783Z,13.94
2022-10-19T15:29:08.265Z,13.90
2022-10-19T15:31:36.795Z,13.91
2022-10-19T15:34:05.813Z,13.87
2022-10-19T15:36:34.200Z,13.84
2022-10-19T15:39:18.249Z,13.81
2022-10-19T15:41:54.128Z,13.78
2022-10-19T15:44:43.017Z,13.75
2022-10-19T15:47:19.335Z,13.70
2022-10-19T15:49:52.424Z,13.68
2022-10-19T15:52:40.403Z,13.64
2022-10-19T15:55:12.314Z,13.60
2022-10-19T15:57:40.968Z,13.55
2022-10-19T16:00:09.525Z,13.51
2022-10-19T16:02:39.337Z,13.48
2022-10-19T16:05:08.768Z,13.43
2022-10-19T16:07:39.861Z,13.39
2022-10-19T16:10:14.565Z,13.35
2022-10-19T16:12:42.790Z,13.30
2022-10-19T16:15:22.585Z,13.27
2022-10-19T16:17:58.300Z,13.26
2022-10-19T16:20:29.776Z,13.24
2022-10-19T16:22:58.444Z,13.24
2022-10-19T16:25:26.819Z,13.21
2022-10-19T16:27:55.135Z,13.19
2022-10-19T16:30:23.370Z,13.17
2022-10-19T16:32:51.586Z,13.15
2022-10-19T16:35:19.858Z,13.12
2022-10-19T16:37:47.925Z,13.09
2022-10-19T16:40:16.236Z,13.05
2022-10-19T16:42:44.182Z,13.01
2022-10-19T16:45:12.190Z,12.97
2022-10-19T16:47:40.800Z,12.95
2022-10-19T16:50:11.311Z,12.93
2022-10-19T16:52:39.487Z,12.93
2022-10-19T16:55:08.801Z,12.90
2022-10-19T16:57:37.368Z,12.89
2022-10-19T17:00:07.215Z,12.92
2022-10-19T17:02:35.568Z,12.93
2022-10-19T17:05:04.354Z,12.92
2022-10-19T17:07:32.573Z,12.90
2022-10-19T17:10:00.917Z,12.87
2022-10-19T17:12:29.455Z,12.80
2022-10-19T17:15:11.634Z,12.72
2022-10-19T17:17:46.296Z,12.63
2022-10-19T17:20:15.954Z,12.53
2022-10-19T17:22:44.327Z,12.44
2022-10-19T17:25:12.361Z,12.34
2022-10-19T17:27:40.375Z,12.25
2022-10-19T17:30:08.784Z,12.15
2022-10-19T17:32:37.296Z,12.06
2022-10-19T17:35:06.290Z,11.97
2022-10-19T17:37:34.866Z,11.92
2022-10-19T17:40:04.272Z,11.88
2022-10-19T17:42:37.042Z,11.87
2022-10-19T17:45:07.497Z,11.89
2022-10-19T17:47:36.555Z,11.91
2022-10-19T17:50:06.476Z,11.93
2022-10-19T17:52:34.575Z,11.95
2022-10-19T17:55:18.502Z,11.97
2022-10-19T17:57:47.141Z,11.98
2022-10-19T18:00:15.528Z,12.02
2022-10-19T18:02:45.402Z,12.07
2022-10-19T18:05:13.463Z,12.10
2022-10-19T18:07:43.931Z,12.13
2022-10-19T18:10:13.830Z,12.15
2022-10-19T18:12:42.786Z,12.15
2022-10-19T18:15:11.413Z,12.15
2022-10-19T18:17:40.121Z,12.16
2022-10-19T18:20:09.382Z,12.15
2022-10-19T18:22:37.334Z,12.14
2022-10-19T18:25:05.577Z,12.12
2022-10-19T18:27:35.402Z,12.11
2022-10-19T18:30:04.434Z,12.08
2022-10-19T18:32:33.079Z,12.04
2022-10-19T18:35:01.507Z,12.00
2022-10-19T18:37:29.642Z,11.96
2022-10-19T18:39:57.833Z,11.93
2022-10-19T18:42:26.130Z,11.88
2022-10-19T18:44:54.524Z,11.84
2022-10-19T18:47:22.685Z,11.79
2022-10-19T18:49:50.662Z,11.75
2022-10-19T18:52:18.840Z,11.69
2022-10-19T18:54:46.927Z,11.62
2022-10-19T18:57:14.924Z,11.58
2022-10-19T18:59:44.268Z,11.54
2022-10-19T19:06:11.972Z,11.44
2022-10-19T19:08:41.211Z,11.43
2022-10-19T19:11:15.226Z,11.44
2022-10-19T19:13:56.015Z,11.46
2022-10-19T19:16:26.037Z,11.47
2022-10-19T19:18:54.869Z,11.47
2022-10-19T19:21:29.664Z,11.44
2022-10-19T19:24:03.311Z,11.44
2022-10-19T19:26:34.357Z,11.42
2022-10-19T19:29:02.790Z,11.37
2022-10-19T19:31:31.827Z,11.30
2022-10-19T19:34:01.430Z,11.23
2022-10-19T19:36:29.456Z,11.19
2022-10-19T19:38:59.312Z,11.14
2022-10-19T19:41:29.090Z,11.09
2022-10-19T19:44:00.228Z,11.02
2022-10-19T19:46:28.445Z,10.94
2022-10-19T19:49:02.358Z,10.88
2022-10-19T19:51:32.894Z,10.84
2022-10-19T19:54:01.103Z,10.81
2022-10-19T19:56:29.802Z,10.77
2022-10-19T19:59:00.036Z,10.76
2022-10-19T20:01:28.257Z,10.75
2022-10-19T20:03:59.728Z,10.72
2022-10-19T20:06:28.754Z,10.71
2022-10-19T20:08:57.666Z,10.72
2022-10-19T20:11:28.039Z,10.74
2022-10-19T20:13:56.738Z,10.77
2022-10-19T20:16:29.309Z,10.79
2022-10-19T20:19:10.020Z,10.80
2022-10-19T20:21:38.984Z,10.81
2022-10-19T20:24:07.952Z,10.84
2022-10-19T20:26:36.197Z,10.86
2022-10-19T20:29:05.288Z,10.88
2022-10-19T20:31:39.564Z,10.92
2022-10-19T20:34:13.804Z,10.96
2022-10-19T20:36:42.147Z,11.00
2022-10-19T20:39:10.809Z,11.03
2022-10-19T20:41:39.089Z,11.05
2022-10-19T20:44:07.280Z,11.06
2022-10-19T20:46:37.215Z,11.06
2022-10-19T20:49:05.571Z,11.05
2022-10-19T20:51:36.922Z,11.05
2022-10-19T20:54:08.449Z,11.04
2022-10-19T20:56:38.633Z,11.02
2022-10-19T20:59:08.414Z,10.99
2022-10-19T21:01:38.420Z,10.95
2022-10-19T21:04:09.296Z,10.92
2022-10-19T21:06:40.883Z,10.91
2022-10-19T21:09:11.129Z,10.88
2022-10-19T21:11:41.085Z,10.85
2022-10-19T21:14:15.732Z,10.83
2022-10-19T21:16:43.799Z,10.80
2022-10-19T21:19:14.639Z,10.77
2022-10-19T21:21:46.339Z,10.72
2022-10-19T21:24:23.300Z,10.67
2022-10-19T21:29:25.039Z,10.58
2022-10-19T21:31:53.676Z,10.54
2022-10-19T21:34:27.824Z,10.51
2022-10-19T21:36:56.798Z,10.47
2022-10-19T21:39:24.876Z,10.44
2022-10-19T21:41:53.371Z,10.39
2022-10-19T21:44:23.387Z,10.37
2022-10-19T21:46:51.506Z,10.32
2022-10-19T21:49:19.697Z,10.29
2022-10-19T21:51:54.006Z,10.26
2022-10-19T21:54:29.279Z,10.22
2022-10-19T21:57:00.446Z,10.18
2022-10-19T21:59:29.141Z,10.10
2022-10-19T22:01:57.510Z,10.04
2022-10-19T22:04:26.034Z,9.98
2022-10-19T22:06:54.503Z,9.91
2022-10-19T22:09:23.146Z,9.84
2022-10-19T22:11:51.546Z,9.76
2022-10-19T22:14:21.269Z,9.69
2022-10-19T22:16:49.384Z,9.64
2022-10-19T22:19:18.117Z,9.59
2022-10-19T22:21:46.197Z,9.53
2022-10-19T22:24:16.010Z,9.47
2022-10-19T22:26:47.543Z,9.42
2022-10-19T22:29:15.661Z,9.37
2022-10-19T22:31:44.866Z,9.35
2022-10-19T22:34:16.549Z,9.31
2022-10-19T22:36:45.069Z,9.27
2022-10-19T22:39:14.088Z,9.24
2022-10-19T22:41:42.333Z,9.20
2022-10-19T22:44:10.712Z,9.12
2022-10-19T22:46:38.898Z,9.02
2022-10-19T22:49:06.983Z,8.93
2022-10-19T22:51:35.793Z,8.84
2022-10-19T22:54:07.136Z,8.77
2022-10-19T22:56:35.917Z,8.69
2022-10-19T22:59:06.109Z,8.65
2022-10-19T23:01:35.161Z,8.61
2022-10-19T23:04:03.521Z,8.56
2022-10-19T23:06:31.912Z,8.52
2022-10-19T23:08:59.882Z,8.50
2022-10-19T23:11:28.078Z,8.52
2022-10-19T23:13:56.149Z,8.54
2022-10-19T23:16:24.372Z,8.57
2022-10-19T23:18:52.690Z,8.59
2022-10-19T23:21:20.773Z,8.59
2022-10-19T23:23:48.850Z,8.57
2022-10-19T23:26:21.474Z,8.54
2022-10-19T23:28:50.785Z,8.51
2022-10-19T23:31:24.428Z,8.46
2022-10-19T23:33:53.959Z,8.38
2022-10-19T23:36:25.368Z,8.31
2022-10-19T23:38:55.326Z,8.24
2022-10-19T23:41:23.558Z,8.19
2022-10-19T23:43:51.640Z,8.14
2022-10-19T23:46:20.328Z,8.13
2022-10-19T23:48:48.209Z,8.11
2022-10-19T23:51:18.797Z,8.08
2022-10-19T23:53:49.167Z,8.05
2022-10-19T23:56:23.650Z,7.99
2022-10-19T23:58:53.006Z,7.94
